»·PEaware :: N227SB KSNA-KSBA

N227SB :: KSNA-KSBA

FLIGHT INFORMATION

Flight Status: Arrived
Operator: Privately registered:
United States
More flights under this callsign
Pilot: Dean S. (16265)
Aircraft: Unknown
(DA40)
More flights by this aircraft type
Origin: KSNA John Wayne-Orange Co
United States
Destination: KSBA Santa Barbara Mun
United States
More flights between these airports :: More routes between these airports
Route: POM VNY VTU RZS
File this flight plan on PilotEdge
Remarks:
Altitude:
(Current/Filed)
7,500ft
Speed:
(Current/Filed)
145kts
Departed: 03-Sep-18 03:20 PM
Arrived: 03-Sep-18 04:27 PM
Distance/Time
Traveled:
108nm/1:07
Distance/Time
To Go:
Arrived

Flight Plot

Page will automatically refresh every two minutes.

Flight plan parsing failed; only flown route is shown


Map Options




Map Legend


Flown Route
Filed Route
Departure Airport
Arrival Airport
Navaid (VOR, NDB)
Fix

Horizontal Profiles

Position Reports

Time Latitude Longitude Heading Altitude Ground
Speed
03-Sep-18 15:02 33.672072 -117.867442 32 59ft 0kts
03-Sep-18 15:04 33.672072 -117.867442 32 59ft 0kts
03-Sep-18 15:04 33.672072 -117.867442 32 59ft 0kts
03-Sep-18 15:05 33.672072 -117.867442 32 59ft 0kts
03-Sep-18 15:06 33.672072 -117.867442 32 59ft 0kts
03-Sep-18 15:07 33.672072 -117.867442 32 59ft 0kts
03-Sep-18 15:08 33.672073 -117.867441 32 59ft 0kts
03-Sep-18 15:09 33.672073 -117.867441 32 59ft 0kts
03-Sep-18 15:10 33.672073 -117.867441 32 59ft 0kts
03-Sep-18 15:11 33.672073 -117.867441 32 59ft 0kts
03-Sep-18 15:12 33.672073 -117.867441 32 59ft 0kts
03-Sep-18 15:13 33.672073 -117.867441 32 59ft 0kts
03-Sep-18 15:14 33.672073 -117.867441 32 59ft 0kts
03-Sep-18 15:15 33.672073 -117.867441 32 59ft 0kts
03-Sep-18 15:16 33.672121 -117.867395 39 59ft 0kts
03-Sep-18 15:17 33.673437 -117.867013 4 59ft 9kts
03-Sep-18 15:18 33.676652 -117.865462 27 59ft 13kts
03-Sep-18 15:19 33.679668 -117.863571 26 59ft 11kts
03-Sep-18 15:20 33.679977 -117.863651 296 59ft 2kts
03-Sep-18 15:21 33.669388 -117.871156 209 455ft 70kts
03-Sep-18 15:22 33.660263 -117.890993 252 1354ft 77kts
03-Sep-18 15:23 33.653418 -117.916829 249 2294ft 90kts
03-Sep-18 15:24 33.644222 -117.943439 249 3430ft 80kts
03-Sep-18 15:25 33.636668 -117.968375 247 4208ft 89kts
03-Sep-18 15:26 33.637360 -118.003520 323 4530ft 126kts
03-Sep-18 15:27 33.664274 -117.985210 58 4988ft 121kts
03-Sep-18 15:28 33.693086 -117.968868 12 5659ft 106kts
03-Sep-18 15:29 33.716279 -117.962575 12 6457ft 86kts
03-Sep-18 15:30 33.747613 -117.954092 12 6428ft 133kts
03-Sep-18 15:31 33.784812 -117.944015 12 6418ft 138kts
03-Sep-18 15:32 33.822519 -117.933792 12 6415ft 139kts
03-Sep-18 15:33 33.860447 -117.923485 12 6413ft 139kts
03-Sep-18 15:34 33.898228 -117.913193 12 6411ft 139kts
03-Sep-18 15:35 33.935963 -117.902932 12 6413ft 139kts
03-Sep-18 15:36 33.973814 -117.892631 12 6415ft 139kts
03-Sep-18 15:37 34.011541 -117.882355 12 6417ft 139kts
03-Sep-18 15:38 34.048546 -117.872266 12 6512ft 137kts
03-Sep-18 15:39 34.085934 -117.862065 12 6519ft 138kts
03-Sep-18 15:40 34.123482 -117.851809 12 6525ft 138kts
03-Sep-18 15:41 34.148860 -117.875156 284 6529ft 138kts
03-Sep-18 15:42 34.158132 -117.920004 276 6513ft 139kts
03-Sep-18 15:43 34.162083 -117.966619 275 6502ft 139kts
03-Sep-18 15:44 34.165974 -118.013062 275 6496ft 139kts
03-Sep-18 15:45 34.169865 -118.059510 275 6491ft 139kts
03-Sep-18 15:46 34.173760 -118.106007 275 6494ft 138kts
03-Sep-18 15:47 34.177641 -118.152330 275 6496ft 138kts
03-Sep-18 15:48 34.181534 -118.198807 275 6498ft 138kts
03-Sep-18 15:49 34.185416 -118.245155 275 6499ft 138kts
03-Sep-18 15:50 34.189298 -118.291515 275 6499ft 138kts
03-Sep-18 15:51 34.193587 -118.337953 281 6499ft 138kts
03-Sep-18 15:52 34.203210 -118.383113 284 6497ft 139kts
03-Sep-18 15:53 34.213060 -118.428202 284 6514ft 138kts
03-Sep-18 15:54 34.222912 -118.473307 284 6493ft 139kts
03-Sep-18 15:55 34.232761 -118.518532 284 6492ft 139kts
03-Sep-18 15:56 34.242612 -118.563710 284 6501ft 138kts
03-Sep-18 15:57 34.252433 -118.608693 284 6502ft 139kts
03-Sep-18 15:58 34.262311 -118.653940 284 6503ft 138kts
03-Sep-18 15:59 34.272130 -118.698926 284 6511ft 138kts
03-Sep-18 16:00 34.281946 -118.743898 284 6518ft 138kts
03-Sep-18 16:01 34.291800 -118.789055 284 6523ft 138kts
03-Sep-18 16:02 34.301628 -118.834094 284 6525ft 138kts
03-Sep-18 16:03 34.311496 -118.879323 284 6524ft 138kts
03-Sep-18 16:04 34.321336 -118.924432 284 6522ft 138kts
03-Sep-18 16:05 34.331212 -118.969710 284 6520ft 138kts
03-Sep-18 16:06 34.341054 -119.014832 284 6518ft 138kts
03-Sep-18 16:07 34.350892 -119.059946 284 6517ft 138kts
03-Sep-18 16:08 34.360764 -119.105222 284 6518ft 138kts
03-Sep-18 16:09 34.370598 -119.150328 284 6519ft 138kts
03-Sep-18 16:10 34.380468 -119.195603 284 6521ft 138kts
03-Sep-18 16:11 34.390284 -119.240639 284 6531ft 138kts
03-Sep-18 16:12 34.400158 -119.285940 284 6512ft 139kts
03-Sep-18 16:13 34.410044 -119.331306 284 6513ft 139kts
03-Sep-18 16:15 34.419891 -119.376499 284 6513ft 139kts
03-Sep-18 16:16 34.429772 -119.421853 284 6512ft 139kts
03-Sep-18 16:17 34.439579 -119.466526 285 6372ft 134kts
03-Sep-18 16:18 34.451720 -119.512005 289 5505ft 142kts
03-Sep-18 16:19 34.463441 -119.555102 278 4883ft 128kts
03-Sep-18 16:20 34.464024 -119.597246 269 4240ft 120kts
03-Sep-18 16:21 34.466318 -119.636402 277 3826ft 118kts
03-Sep-18 16:22 34.469415 -119.670614 272 3381ft 89kts
03-Sep-18 16:23 34.470948 -119.700230 274 3045ft 85kts
03-Sep-18 16:24 34.469176 -119.729097 236 2550ft 98kts
03-Sep-18 16:25 34.451447 -119.753947 225 1572ft 92kts
03-Sep-18 16:26 34.435608 -119.775363 240 961ft 80kts
03-Sep-18 16:27 34.428620 -119.800686 263 390ft 73kts
03-Sep-18 16:28 34.428174 -119.824022 268 112ft 66kts
03-Sep-18 16:29 34.427868 -119.840583 266 13ft 27kts
03-Sep-18 16:30 34.428446 -119.845761 63 13ft 0kts
03-Sep-18 16:31 34.429815 -119.842248 63 13ft 0kts
03-Sep-18 16:32 34.431486 -119.839439 6 13ft 6kts
03-Sep-18 16:33 34.431635 -119.839313 59 14ft 0kts
03-Sep-18 16:34 34.431635 -119.839313 59 14ft 0kts
03-Sep-18 16:35 34.431635 -119.839313 59 14ft 0kts
03-Sep-18 16:36 34.431635 -119.839313 59 14ft 0kts
03-Sep-18 16:37 34.431635 -119.839313 59 14ft 0kts
03-Sep-18 16:38 34.431635 -119.839313 59 14ft 0kts
03-Sep-18 16:39 34.431635 -119.839313 59 14ft 0kts
03-Sep-18 16:40 34.431635 -119.839313 59 14ft 0kts

Navigation Log

Ident Type
Flight plan parsing failed, navigation log unavailable